Etusivu
METAR-TAF:

METAR-TAF

Lentoasemat :

Akita, Japani

Leveyspiiri: 39-37N, Pituuspiiri: 140-13E, korkeus merenpinnasta: 93 m

Tämänhetkinen sää

Tämä raportti tehtiin 58 minuuttia sitten, kello 06.00 UTC
Tuuli 9 kn lännestä
Lämpötila 27°C
Kosteus 37%
Ilmanpaine 1016 hPa
Näkyvyys 10 km tai enemmän
ei pilviä alle 1500 m:ssä eikä cumulonimbus-pilviä

METAR: RJSK 260600Z 28009KT CAVOK 27/11 Q1016

Aika: 15:58 (06:58 UTC)

Sääennuste

Tämä raportti tehtiin 1 tunti ja 52 minuuttia sitten, kello 05.06 UTC
Ennuste voimassa 26. päivästä klo 06 UTC - 27. päivään klo 12 UTC
Tuuli 8 kn lännestä
Näkyvyys 10 km tai enemmän
Muutamia pilviä 4000 ft:n korkeudessa
Tulossa
26. päivästä klo 12 UTC - 26. päivään klo 14 UTC
Tuuli 4 kn kaakosta
Tulossa
27. päivästä klo 00 UTC - 27. päivään klo 03 UTC
Tuuli 8 kn lännestä

TAF: RJSK 260506Z 2606/2712 28008KT 9999 FEW040 BECMG 2612/2614 14004KT BECMG 2700/2703 28008KT

Säähavainnot ja -ennusteet yli 4000 lentoasemalta (METAR- ja TAF-raportit).

Käytössä olevat sääasemat on merkitty karttaan keltaisilla ja punaisilla pisteillä.

Aseta hiiri pisteen päälle nähdäksesi sääaseman nimen.

Klikkaa sitten nähdäksesi säähavainnot ja -ennusteet.

Kartan vaihtaminen: klikkaa mustalla rastilla varustettuja vihreitä pisteitä, niin voit zoomata sisään; viivalla varustettua vihreää pistettä, niin voit zoomata ulos tai vihreitä nuolia, niin pääset viereisille kartoille.


METAR-TAF: